createdAt,value
2018-05-15T00:00:05.110Z,19.50
2018-05-15T00:02:08.698Z,19.50
2018-05-15T00:04:12.246Z,19.30
2018-05-15T00:06:15.819Z,19.60
2018-05-15T00:08:19.338Z,19.60
2018-05-15T00:10:23.000Z,19.70
2018-05-15T00:12:26.599Z,19.70
2018-05-15T00:14:30.141Z,19.70
2018-05-15T00:16:33.718Z,19.60
2018-05-15T00:18:37.233Z,19.60
2018-05-15T00:20:40.774Z,19.40
2018-05-15T00:22:44.318Z,19.50
2018-05-15T00:24:48.621Z,19.60
2018-05-15T00:26:52.901Z,19.60
2018-05-15T00:28:57.249Z,19.60
2018-05-15T00:31:01.537Z,19.50
2018-05-15T00:33:05.081Z,19.50
2018-05-15T00:35:09.034Z,19.50
2018-05-15T00:37:12.552Z,19.50
2018-05-15T00:39:16.135Z,19.30
2018-05-15T00:41:19.722Z,19.40
2018-05-15T00:43:23.274Z,19.40
2018-05-15T00:45:26.787Z,19.40
2018-05-15T00:47:30.811Z,19.40
2018-05-15T00:49:34.333Z,19.40
2018-05-15T00:51:38.589Z,19.20
2018-05-15T00:53:42.129Z,19.20
2018-05-15T00:55:46.513Z,19.30
2018-05-15T00:57:50.064Z,19.20
2018-05-15T00:59:54.375Z,19.30
2018-05-15T01:01:58.694Z,19.30
2018-05-15T01:04:02.345Z,19.20
2018-05-15T01:06:05.844Z,19.30
2018-05-15T01:08:09.342Z,19.30
2018-05-15T01:10:12.843Z,19.20
2018-05-15T01:12:17.159Z,19.20
2018-05-15T01:14:20.728Z,19.10
2018-05-15T01:16:24.356Z,19.10
2018-05-15T01:18:33.173Z,19.10
2018-05-15T01:20:39.362Z,19.00
2018-05-15T01:22:44.958Z,19.00
2018-05-15T01:24:49.077Z,19.00
2018-05-15T01:26:53.519Z,19.00
2018-05-15T01:28:57.887Z,19.00
2018-05-15T01:31:02.836Z,19.00
2018-05-15T01:33:06.911Z,18.90
2018-05-15T01:35:10.848Z,19.00
2018-05-15T01:37:15.502Z,18.90
2018-05-15T01:39:20.239Z,18.90
2018-05-15T01:41:24.028Z,18.90
2018-05-15T01:43:29.806Z,19.00
2018-05-15T01:45:38.297Z,19.00
2018-05-15T01:47:53.422Z,18.90
2018-05-15T01:49:57.563Z,18.90
2018-05-15T01:52:01.557Z,18.90
2018-05-15T01:54:06.457Z,18.90
2018-05-15T01:56:10.093Z,18.90
2018-05-15T01:58:16.016Z,18.90
2018-05-15T02:00:19.845Z,18.80
2018-05-15T02:02:24.026Z,18.90
2018-05-15T02:04:27.572Z,18.90
2018-05-15T02:06:33.538Z,18.90
2018-05-15T02:08:37.959Z,18.80
2018-05-15T02:10:48.910Z,18.70
2018-05-15T02:12:53.971Z,18.70
2018-05-15T02:14:57.890Z,18.60
2018-05-15T02:17:01.441Z,18.50
2018-05-15T02:19:05.090Z,18.50
2018-05-15T02:21:09.437Z,18.60
2018-05-15T02:23:14.239Z,18.60
2018-05-15T02:25:18.173Z,18.60
2018-05-15T02:27:21.908Z,18.50
2018-05-15T02:29:26.498Z,18.50
2018-05-15T02:31:30.102Z,18.50
2018-05-15T02:33:33.930Z,18.50
2018-05-15T02:35:38.534Z,18.40
2018-05-15T02:37:42.967Z,18.20
2018-05-15T02:39:47.352Z,18.10
2018-05-15T02:41:53.127Z,18.10
2018-05-15T02:43:58.670Z,18.20
2018-05-15T02:46:02.649Z,18.10
2018-05-15T02:48:06.173Z,18.20
2018-05-15T02:50:10.792Z,18.20
2018-05-15T02:52:14.820Z,17.90
2018-05-15T02:54:18.335Z,18.00
2018-05-15T02:56:30.055Z,18.10
2018-05-15T02:58:35.280Z,18.10
2018-05-15T03:00:39.016Z,18.10
2018-05-15T03:02:42.711Z,18.20
2018-05-15T03:04:48.056Z,18.20
2018-05-15T03:06:52.923Z,18.20
2018-05-15T03:08:57.671Z,18.10
2018-05-15T03:11:01.681Z,18.10
2018-05-15T03:13:05.630Z,18.00
2018-05-15T03:15:09.892Z,18.00
2018-05-15T03:17:13.899Z,18.00
2018-05-15T03:19:19.426Z,18.00
2018-05-15T03:21:24.178Z,17.90
2018-05-15T03:23:27.787Z,17.90
2018-05-15T03:25:31.973Z,17.90
2018-05-15T03:27:36.273Z,18.00
2018-05-15T03:29:41.127Z,17.90
2018-05-15T03:31:44.683Z,17.90
2018-05-15T03:33:48.472Z,17.80
2018-05-15T03:35:52.892Z,17.70
2018-05-15T03:37:57.091Z,17.80
2018-05-15T03:40:01.451Z,17.80
2018-05-15T03:42:05.043Z,17.70
2018-05-15T03:44:08.561Z,17.70
2018-05-15T03:46:12.359Z,17.70
2018-05-15T03:48:16.642Z,17.60
2018-05-15T03:50:20.900Z,17.70
2018-05-15T03:52:26.090Z,17.70
2018-05-15T03:54:30.721Z,17.80
2018-05-15T03:56:35.138Z,17.80
2018-05-15T03:58:39.558Z,17.80
2018-05-15T04:00:54.889Z,17.80
2018-05-15T04:03:11.210Z,17.70
2018-05-15T04:05:27.286Z,17.70
2018-05-15T04:07:42.539Z,17.50
2018-05-15T04:09:48.728Z,17.40
2018-05-15T04:11:53.262Z,17.40
2018-05-15T04:13:57.086Z,17.40
2018-05-15T04:16:02.634Z,17.40
2018-05-15T04:18:07.163Z,17.40
2018-05-15T04:20:10.750Z,17.20
2018-05-15T04:22:14.843Z,17.20
2018-05-15T04:24:18.511Z,17.40
2018-05-15T04:26:22.871Z,17.30
2018-05-15T04:28:27.436Z,17.20
2018-05-15T04:30:31.759Z,17.20
2018-05-15T04:32:35.309Z,17.20
2018-05-15T04:34:38.922Z,17.10
2018-05-15T04:36:42.475Z,17.10
2018-05-15T04:38:45.979Z,17.00
2018-05-15T04:40:49.549Z,17.00
2018-05-15T04:42:53.058Z,17.10
2018-05-15T04:44:56.577Z,17.10
2018-05-15T04:47:00.120Z,17.10
2018-05-15T04:49:04.455Z,16.90
2018-05-15T04:51:08.002Z,16.90
2018-05-15T04:53:11.779Z,16.80
2018-05-15T04:55:15.697Z,16.40
2018-05-15T04:57:19.988Z,16.40
2018-05-15T04:59:23.565Z,16.60
2018-05-15T05:01:27.450Z,16.80
2018-05-15T05:03:31.900Z,16.70
2018-05-15T05:05:35.792Z,16.70
2018-05-15T05:07:39.481Z,16.40
2018-05-15T05:09:43.153Z,16.40
2018-05-15T05:11:47.582Z,16.30
2018-05-15T05:13:51.020Z,16.30
2018-05-15T05:15:54.593Z,16.70
2018-05-15T05:17:58.094Z,16.70
2018-05-15T05:20:02.374Z,16.80
2018-05-15T05:22:06.719Z,16.90
2018-05-15T05:24:10.293Z,16.90
2018-05-15T05:26:13.803Z,17.00
2018-05-15T05:28:17.351Z,17.10
2018-05-15T05:30:20.899Z,17.20
2018-05-15T05:32:24.481Z,17.40
2018-05-15T05:34:28.737Z,17.50
2018-05-15T05:36:32.245Z,17.50
2018-05-15T05:38:35.802Z,17.60
2018-05-15T05:40:39.283Z,17.50
2018-05-15T05:42:42.850Z,17.30
2018-05-15T05:44:46.332Z,17.00
2018-05-15T05:46:49.902Z,16.80
2018-05-15T05:48:53.427Z,17.10
2018-05-15T05:50:56.945Z,17.30
2018-05-15T05:53:01.306Z,17.60
2018-05-15T05:55:05.781Z,17.60
2018-05-15T05:57:10.078Z,17.60
2018-05-15T05:59:13.673Z,17.60
2018-05-15T06:01:17.233Z,17.40
2018-05-15T06:03:20.775Z,17.50
2018-05-15T06:05:25.229Z,17.70
2018-05-15T06:07:28.827Z,17.70
2018-05-15T06:09:32.337Z,17.60
2018-05-15T06:11:35.891Z,17.70
2018-05-15T06:13:39.488Z,17.70
2018-05-15T06:15:43.028Z,17.70
2018-05-15T06:17:46.619Z,17.70
2018-05-15T06:19:50.167Z,17.60
2018-05-15T06:21:54.789Z,17.70
2018-05-15T06:23:58.354Z,17.60
2018-05-15T06:26:01.903Z,17.60
2018-05-15T06:28:05.499Z,17.50
2018-05-15T06:30:09.072Z,17.50
2018-05-15T06:32:12.634Z,17.60
2018-05-15T06:34:16.327Z,17.60
2018-05-15T06:36:19.867Z,17.60
2018-05-15T06:38:23.386Z,17.60
2018-05-15T06:40:26.928Z,17.70
2018-05-15T06:42:30.447Z,17.70
2018-05-15T06:44:34.765Z,18.00
2018-05-15T06:46:38.526Z,18.00
2018-05-15T06:48:42.886Z,18.00
2018-05-15T06:50:46.470Z,18.00
2018-05-15T06:52:50.046Z,18.00
2018-05-15T06:54:54.574Z,18.20
2018-05-15T06:56:58.955Z,18.30
2018-05-15T06:59:02.459Z,18.30
2018-05-15T07:01:05.962Z,18.40
2018-05-15T07:03:09.502Z,18.40
2018-05-15T07:05:13.199Z,18.50
2018-05-15T07:07:16.749Z,18.60
2018-05-15T07:09:20.264Z,18.80
2018-05-15T07:11:23.864Z,18.80
2018-05-15T07:13:27.379Z,18.80
2018-05-15T07:15:31.613Z,18.80
2018-05-15T07:17:35.132Z,18.80
2018-05-15T07:19:38.627Z,18.80
2018-05-15T07:21:42.166Z,18.80
2018-05-15T07:23:45.781Z,18.50
2018-05-15T07:25:49.275Z,18.80
2018-05-15T07:27:52.869Z,18.80
2018-05-15T07:29:56.383Z,18.90
2018-05-15T07:31:59.925Z,18.90
2018-05-15T07:34:04.321Z,18.60
2018-05-15T07:36:07.828Z,18.60
2018-05-15T07:38:11.373Z,18.80
2018-05-15T07:40:14.953Z,19.00
2018-05-15T07:42:21.237Z,18.80
2018-05-15T07:44:26.545Z,19.00
2018-05-15T07:46:30.207Z,19.00
2018-05-15T07:48:33.797Z,18.80
2018-05-15T07:50:37.314Z,18.90
2018-05-15T07:52:41.306Z,19.00
2018-05-15T07:54:44.815Z,19.00
2018-05-15T07:56:48.319Z,19.10
2018-05-15T07:58:51.867Z,19.10
2018-05-15T08:00:55.421Z,19.20
2018-05-15T08:02:59.755Z,19.40
2018-05-15T08:05:03.307Z,19.30
2018-05-15T08:07:06.819Z,19.40
2018-05-15T08:09:11.160Z,19.50
2018-05-15T08:11:14.708Z,19.50
2018-05-15T08:13:18.314Z,19.40
2018-05-15T08:15:22.619Z,19.50
2018-05-15T08:17:26.923Z,19.60
2018-05-15T08:19:30.423Z,19.60
2018-05-15T08:21:34.395Z,19.60
2018-05-15T08:23:37.919Z,19.50
2018-05-15T08:25:41.418Z,19.70
2018-05-15T08:27:44.995Z,19.80
2018-05-15T08:29:48.522Z,19.70
2018-05-15T08:31:52.029Z,19.70
2018-05-15T08:33:56.356Z,19.80
2018-05-15T08:36:00.755Z,19.80
2018-05-15T08:38:05.070Z,19.80
2018-05-15T08:40:09.420Z,19.90
2018-05-15T08:42:13.111Z,19.80
2018-05-15T08:44:16.635Z,20.00
2018-05-15T08:46:20.913Z,20.00
2018-05-15T08:48:24.589Z,20.00
2018-05-15T08:50:28.096Z,20.10
2018-05-15T08:52:32.403Z,20.30
2018-05-15T08:54:36.709Z,20.20
2018-05-15T08:56:41.008Z,20.30
2018-05-15T08:58:44.894Z,20.30
2018-05-15T09:00:48.405Z,20.20
2018-05-15T09:02:51.904Z,20.20
2018-05-15T09:04:55.469Z,20.30
2018-05-15T09:06:58.987Z,20.40
2018-05-15T09:09:02.537Z,20.50
2018-05-15T09:11:06.108Z,20.60
2018-05-15T09:13:10.400Z,20.60
2018-05-15T09:15:13.930Z,20.60
2018-05-15T09:17:18.228Z,20.70
2018-05-15T09:19:22.566Z,20.80
2018-05-15T09:21:26.253Z,20.70
2018-05-15T09:23:29.767Z,20.80
2018-05-15T09:25:33.319Z,20.80
2018-05-15T09:27:36.897Z,20.90
2018-05-15T09:29:40.463Z,20.90
2018-05-15T09:31:44.116Z,20.90
2018-05-15T09:33:48.415Z,21.10
2018-05-15T09:35:51.911Z,21.00
2018-05-15T09:37:56.231Z,21.10
2018-05-15T09:39:59.746Z,21.00
2018-05-15T09:42:03.286Z,20.90
2018-05-15T09:44:06.895Z,20.90
2018-05-15T09:46:10.423Z,21.20
2018-05-15T09:48:14.008Z,21.40
2018-05-15T09:50:18.319Z,21.30
2018-05-15T09:52:21.820Z,21.30
2018-05-15T09:54:25.382Z,21.30
2018-05-15T09:56:28.907Z,21.40
2018-05-15T09:58:33.215Z,21.50
2018-05-15T10:00:36.774Z,21.40
2018-05-15T10:02:40.328Z,21.50
2018-05-15T10:04:43.845Z,21.50
2018-05-15T10:06:47.401Z,21.50
2018-05-15T10:08:50.889Z,21.50
2018-05-15T10:10:54.468Z,21.60
2018-05-15T10:12:58.016Z,21.70
2018-05-15T10:15:02.327Z,21.70
2018-05-15T10:17:05.915Z,21.60
2018-05-15T10:19:10.191Z,21.70
2018-05-15T10:21:13.678Z,21.70
2018-05-15T10:23:17.210Z,21.70
2018-05-15T10:25:20.718Z,21.70
2018-05-15T10:27:25.007Z,21.90
2018-05-15T10:29:28.529Z,21.90
2018-05-15T10:31:32.111Z,22.00
2018-05-15T10:33:36.423Z,22.10
2018-05-15T10:35:40.716Z,22.10
2018-05-15T10:37:44.224Z,22.10
2018-05-15T10:39:48.502Z,22.20
2018-05-15T10:41:52.043Z,22.20
2018-05-15T10:43:56.337Z,22.20
2018-05-15T10:45:59.957Z,22.20
2018-05-15T10:48:03.498Z,22.20
2018-05-15T10:50:07.086Z,22.20
2018-05-15T10:52:10.616Z,22.30
2018-05-15T10:54:14.111Z,22.30
2018-05-15T10:56:17.650Z,22.30
2018-05-15T10:58:21.181Z,22.30
2018-05-15T11:00:24.686Z,22.40
2018-05-15T11:02:28.215Z,22.40
2018-05-15T11:04:32.515Z,22.50
2018-05-15T11:06:36.845Z,22.50
2018-05-15T11:08:40.429Z,22.50
2018-05-15T11:10:43.917Z,22.50
2018-05-15T11:12:48.261Z,22.60
2018-05-15T11:14:51.764Z,22.50
2018-05-15T11:16:55.259Z,22.60
2018-05-15T11:19:19.476Z,22.70
2018-05-15T11:21:34.749Z,22.80
2018-05-15T11:23:50.137Z,22.70
2018-05-15T11:25:53.720Z,22.80
2018-05-15T11:27:57.271Z,22.80
2018-05-15T11:30:00.835Z,22.80
2018-05-15T11:32:05.856Z,23.50
2018-05-15T11:34:09.367Z,23.50
2018-05-15T11:36:13.665Z,23.60
2018-05-15T11:38:17.167Z,23.60
2018-05-15T11:40:21.490Z,23.40
2018-05-15T11:42:25.051Z,23.50
2018-05-15T11:44:28.605Z,23.40
2018-05-15T11:46:32.932Z,23.50
2018-05-15T11:48:36.851Z,23.50
2018-05-15T11:50:41.090Z,23.60
2018-05-15T11:52:44.313Z,23.90
2018-05-15T11:54:47.562Z,24.40
2018-05-15T11:56:51.073Z,24.50
2018-05-15T11:58:55.396Z,24.10
2018-05-15T12:00:59.721Z,24.00
2018-05-15T12:03:04.035Z,24.30
2018-05-15T12:05:08.334Z,24.10
2018-05-15T12:07:11.849Z,24.10
2018-05-15T12:09:16.131Z,23.80
2018-05-15T12:11:19.703Z,23.80
2018-05-15T12:13:23.215Z,23.70
2018-05-15T12:15:27.519Z,23.60
2018-05-15T12:17:31.845Z,23.60
2018-05-15T12:19:35.344Z,23.70
2018-05-15T12:21:38.848Z,23.80
2018-05-15T12:23:43.157Z,25.00
2018-05-15T12:25:46.659Z,25.00
2018-05-15T12:27:50.185Z,24.60
2018-05-15T12:29:53.874Z,25.00
2018-05-15T12:31:58.114Z,24.40
2018-05-15T12:34:01.664Z,24.40
2018-05-15T12:36:06.021Z,24.70
2018-05-15T12:38:09.555Z,24.70
2018-05-15T12:40:13.151Z,25.20
2018-05-15T12:42:16.648Z,25.30
2018-05-15T12:44:20.222Z,25.30
2018-05-15T12:46:23.776Z,25.30
2018-05-15T12:48:27.335Z,25.00
2018-05-15T12:50:30.794Z,24.80
2018-05-15T12:52:35.065Z,24.60
2018-05-15T12:54:39.374Z,24.80
2018-05-15T12:56:43.840Z,25.10
2018-05-15T12:58:47.357Z,25.10
2018-05-15T13:00:50.886Z,27.50
2018-05-15T13:02:55.185Z,27.30
2018-05-15T13:04:59.524Z,28.00
2018-05-15T13:07:03.049Z,28.00
2018-05-15T13:09:06.653Z,27.90
2018-05-15T13:11:10.182Z,27.10
2018-05-15T13:13:14.458Z,26.40
2018-05-15T13:15:18.093Z,26.30
2018-05-15T13:17:21.595Z,26.00
2018-05-15T13:19:25.875Z,25.70
2018-05-15T13:21:29.838Z,25.70
2018-05-15T13:23:33.338Z,25.70
2018-05-15T13:25:36.823Z,25.80
2018-05-15T13:27:40.364Z,26.30
2018-05-15T13:29:43.909Z,28.20
2018-05-15T13:31:47.465Z,29.80
2018-05-15T13:33:50.959Z,29.40
2018-05-15T13:35:54.478Z,30.00
2018-05-15T13:37:59.161Z,28.20
2018-05-15T13:40:02.719Z,28.20
2018-05-15T13:42:06.473Z,28.10
2018-05-15T13:44:10.001Z,27.00
2018-05-15T13:46:13.572Z,26.50
2018-05-15T13:48:17.094Z,27.20
2018-05-15T13:50:20.643Z,29.50
2018-05-15T13:52:24.276Z,29.50
2018-05-15T13:54:28.635Z,31.00
2018-05-15T13:56:32.896Z,30.50
2018-05-15T13:58:36.447Z,30.40
2018-05-15T14:00:40.020Z,29.70
2018-05-15T14:02:43.552Z,28.10
2018-05-15T14:04:47.082Z,27.10
2018-05-15T14:06:51.226Z,27.10
2018-05-15T14:08:54.774Z,26.70
2018-05-15T14:10:58.307Z,28.30
2018-05-15T14:13:01.806Z,30.30
2018-05-15T14:15:05.405Z,28.50
2018-05-15T14:17:08.910Z,27.30
2018-05-15T14:19:12.501Z,28.50
2018-05-15T14:21:15.978Z,27.40
2018-05-15T14:23:19.481Z,26.60
2018-05-15T14:25:23.392Z,26.50
2018-05-15T14:27:26.904Z,26.20
2018-05-15T14:29:30.400Z,26.20
2018-05-15T14:31:33.938Z,25.90
2018-05-15T14:33:37.468Z,25.90
2018-05-15T14:35:40.971Z,26.50
2018-05-15T14:37:44.553Z,27.80
2018-05-15T14:39:48.124Z,27.40
2018-05-15T14:42:04.118Z,28.50
2018-05-15T14:44:07.656Z,28.40
2018-05-15T14:46:11.208Z,28.40
2018-05-15T14:48:15.460Z,30.80
2018-05-15T14:50:20.098Z,29.80
2018-05-15T14:52:24.432Z,29.60
2018-05-15T14:54:28.731Z,30.60
2018-05-15T14:56:32.243Z,30.50
2018-05-15T14:58:35.717Z,29.20
2018-05-15T15:00:39.231Z,29.20
2018-05-15T15:02:42.754Z,28.20
2018-05-15T15:04:46.270Z,28.40
2018-05-15T15:06:49.810Z,29.80
2018-05-15T15:08:53.293Z,31.60
2018-05-15T15:10:56.781Z,29.70
2018-05-15T15:13:00.358Z,29.90
2018-05-15T15:15:03.858Z,28.90
2018-05-15T15:17:07.370Z,27.50
2018-05-15T15:19:10.954Z,26.90
2018-05-15T15:21:14.470Z,26.40
2018-05-15T15:23:18.017Z,26.20
2018-05-15T15:25:21.591Z,26.20
2018-05-15T15:27:25.929Z,26.30
2018-05-15T15:29:29.451Z,26.30
2018-05-15T15:31:32.963Z,26.60
2018-05-15T15:33:37.302Z,27.20
2018-05-15T15:35:40.809Z,27.20
2018-05-15T15:37:45.077Z,27.00
2018-05-15T15:39:48.819Z,27.00
2018-05-15T15:41:53.068Z,27.00
2018-05-15T15:43:57.079Z,27.00
2018-05-15T15:46:00.779Z,26.70
2018-05-15T15:48:11.967Z,26.30
2018-05-15T15:50:15.598Z,26.40
2018-05-15T15:52:19.054Z,26.30
2018-05-15T15:54:22.603Z,26.70
2018-05-15T15:56:26.912Z,26.70
2018-05-15T15:58:31.186Z,26.70
2018-05-15T16:00:34.716Z,26.70
2018-05-15T16:02:38.394Z,26.20
2018-05-15T16:04:41.939Z,25.70
2018-05-15T16:06:45.453Z,25.60
2018-05-15T16:08:49.033Z,25.70
2018-05-15T16:10:52.555Z,25.40
2018-05-15T16:12:56.086Z,25.20
2018-05-15T16:14:59.614Z,25.50
2018-05-15T16:17:03.164Z,25.90
2018-05-15T16:19:06.676Z,26.10
2018-05-15T16:21:11.001Z,25.80
2018-05-15T16:23:15.269Z,25.90
2018-05-15T16:25:18.766Z,25.90
2018-05-15T16:27:22.662Z,25.70
2018-05-15T16:29:26.209Z,25.80
2018-05-15T16:31:30.518Z,25.90
2018-05-15T16:33:34.077Z,25.90
2018-05-15T16:35:37.620Z,26.00
2018-05-15T16:37:41.987Z,25.70
2018-05-15T16:39:45.559Z,25.60
2018-05-15T16:41:49.079Z,25.40
2018-05-15T16:43:52.626Z,25.30
2018-05-15T16:45:56.178Z,25.40
2018-05-15T16:47:59.666Z,25.40
2018-05-15T16:50:03.317Z,25.30
2018-05-15T16:52:06.868Z,25.30
2018-05-15T16:54:10.375Z,25.40
2018-05-15T16:56:14.487Z,25.20
2018-05-15T16:58:17.999Z,25.00
2018-05-15T17:00:22.271Z,24.90
2018-05-15T17:02:25.875Z,24.90
2018-05-15T17:04:29.374Z,24.90
2018-05-15T17:06:34.076Z,25.10
2018-05-15T17:08:39.494Z,25.10
2018-05-15T17:10:43.214Z,25.10
2018-05-15T17:12:47.479Z,25.20
2018-05-15T17:14:51.764Z,25.20
2018-05-15T17:16:55.357Z,25.10
2018-05-15T17:18:58.971Z,25.10
2018-05-15T17:21:02.495Z,24.70
2018-05-15T17:23:06.039Z,24.80
2018-05-15T17:25:09.619Z,24.70
2018-05-15T17:27:13.143Z,24.50
2018-05-15T17:29:16.712Z,24.20
2018-05-15T17:31:20.246Z,24.20
2018-05-15T17:33:23.809Z,24.10
2018-05-15T17:35:27.361Z,24.00
2018-05-15T17:37:30.957Z,24.00
2018-05-15T17:39:34.467Z,23.90
2018-05-15T17:41:38.017Z,23.80
2018-05-15T17:43:41.527Z,23.70
2018-05-15T17:45:45.851Z,23.60
2018-05-15T17:47:52.342Z,23.50
2018-05-15T17:49:56.413Z,23.40
2018-05-15T17:52:00.663Z,23.50
2018-05-15T17:54:04.314Z,23.50
2018-05-15T17:56:08.630Z,23.50
2018-05-15T17:58:12.920Z,23.60
2018-05-15T18:00:16.500Z,23.50
2018-05-15T18:02:20.053Z,23.60
2018-05-15T18:04:24.346Z,23.40
2018-05-15T18:06:27.878Z,23.40
2018-05-15T18:08:31.427Z,23.40
2018-05-15T18:10:34.862Z,23.40
2018-05-15T18:12:38.450Z,23.40
2018-05-15T18:14:42.121Z,23.30
2018-05-15T18:16:46.407Z,23.40
2018-05-15T18:18:49.883Z,23.30
2018-05-15T18:20:53.450Z,23.30
2018-05-15T18:22:56.995Z,23.30
2018-05-15T18:25:01.415Z,23.20
2018-05-15T18:27:04.920Z,23.20
2018-05-15T18:29:08.412Z,23.20
2018-05-15T18:31:12.443Z,23.20
2018-05-15T18:33:16.788Z,23.10
2018-05-15T18:35:20.254Z,23.10
2018-05-15T18:37:24.577Z,23.00
2018-05-15T18:39:28.889Z,22.90
2018-05-15T18:41:32.466Z,22.80
2018-05-15T18:43:36.769Z,22.90
2018-05-15T18:45:40.287Z,22.80
2018-05-15T18:47:44.616Z,22.80
2018-05-15T18:49:48.151Z,22.70
2018-05-15T18:51:51.727Z,22.70
2018-05-15T18:53:55.256Z,22.70
2018-05-15T18:55:58.748Z,22.70
2018-05-15T18:58:02.451Z,22.70
2018-05-15T19:00:05.919Z,22.70
2018-05-15T19:02:09.438Z,22.60
2018-05-15T19:04:13.798Z,22.60
2018-05-15T19:06:18.062Z,22.50
2018-05-15T19:08:21.579Z,22.50
2018-05-15T19:10:25.926Z,22.40
2018-05-15T19:12:29.408Z,22.50
2018-05-15T19:14:33.676Z,22.40
2018-05-15T19:16:37.292Z,22.30
2018-05-15T19:18:40.833Z,22.20
2018-05-15T19:20:44.396Z,22.20
2018-05-15T19:22:48.651Z,22.20
2018-05-15T19:24:52.174Z,22.20
2018-05-15T19:26:57.466Z,22.10
2018-05-15T19:29:00.891Z,22.10
2018-05-15T19:31:04.431Z,22.20
2018-05-15T19:33:09.965Z,22.20
2018-05-15T19:35:28.732Z,22.10
2018-05-15T19:37:32.261Z,22.10
2018-05-15T19:39:50.776Z,22.10
2018-05-15T19:41:55.050Z,22.10
2018-05-15T19:43:58.548Z,22.00
2018-05-15T19:46:02.085Z,22.00
2018-05-15T19:48:05.658Z,22.00
2018-05-15T19:50:09.245Z,22.00
2018-05-15T19:52:12.773Z,21.90
2018-05-15T19:54:16.330Z,21.80
2018-05-15T19:56:20.622Z,21.80
2018-05-15T19:58:24.158Z,21.80
2018-05-15T20:00:28.492Z,21.70
2018-05-15T20:02:32.043Z,21.70
2018-05-15T20:04:35.616Z,21.70
2018-05-15T20:06:39.194Z,21.60
2018-05-15T20:08:42.715Z,21.60
2018-05-15T20:10:46.242Z,21.60
2018-05-15T20:12:49.766Z,21.60
2018-05-15T20:14:53.273Z,21.60
2018-05-15T20:16:56.820Z,21.60
2018-05-15T20:19:01.203Z,21.60
2018-05-15T20:21:12.251Z,21.60
2018-05-15T20:23:18.083Z,21.50
2018-05-15T20:25:22.594Z,21.50
2018-05-15T20:27:26.839Z,21.50
2018-05-15T20:29:30.437Z,21.50
2018-05-15T20:31:34.287Z,21.50
2018-05-15T20:33:38.610Z,21.50
2018-05-15T20:35:42.229Z,21.50
2018-05-15T20:37:45.762Z,21.50
2018-05-15T20:39:50.022Z,21.40
2018-05-15T20:41:54.552Z,21.40
2018-05-15T20:43:59.181Z,21.40
2018-05-15T20:46:02.782Z,21.30
2018-05-15T20:48:07.188Z,21.30
2018-05-15T20:50:11.208Z,21.30
2018-05-15T20:52:15.221Z,21.30
2018-05-15T20:54:19.167Z,21.30
2018-05-15T20:56:22.722Z,21.30
2018-05-15T20:58:26.694Z,21.30
2018-05-15T21:00:31.084Z,21.30
2018-05-15T21:02:35.388Z,21.30
2018-05-15T21:04:38.972Z,21.20
2018-05-15T21:06:42.453Z,21.20
2018-05-15T21:08:45.955Z,21.20
2018-05-15T21:10:49.486Z,21.20
2018-05-15T21:12:53.005Z,21.20
2018-05-15T21:14:57.320Z,21.10
2018-05-15T21:17:00.905Z,21.10
2018-05-15T21:19:08.804Z,21.10
2018-05-15T21:21:13.228Z,21.00
2018-05-15T21:23:17.529Z,21.00
2018-05-15T21:25:21.014Z,20.90
2018-05-15T21:27:25.364Z,20.90
2018-05-15T21:29:28.915Z,20.90
2018-05-15T21:31:32.417Z,20.90
2018-05-15T21:33:35.947Z,20.90
2018-05-15T21:35:39.491Z,20.90
2018-05-15T21:37:42.993Z,20.90
2018-05-15T21:39:46.543Z,20.90
2018-05-15T21:41:50.083Z,20.90
2018-05-15T21:43:53.623Z,20.90
2018-05-15T21:45:57.186Z,20.90
2018-05-15T21:48:00.773Z,20.90
2018-05-15T21:50:04.426Z,20.90
2018-05-15T21:52:07.912Z,20.90
2018-05-15T21:54:11.433Z,20.80
2018-05-15T21:56:15.030Z,20.80
2018-05-15T21:58:18.607Z,20.80
2018-05-15T22:00:22.188Z,20.70
2018-05-15T22:02:25.927Z,20.70
2018-05-15T22:04:29.441Z,20.70
2018-05-15T22:06:32.951Z,20.70
2018-05-15T22:08:36.518Z,20.70
2018-05-15T22:10:40.030Z,20.70
2018-05-15T22:12:55.289Z,20.60
2018-05-15T22:15:17.758Z,20.60
2018-05-15T22:17:39.123Z,20.60
2018-05-15T22:20:00.407Z,20.60
2018-05-15T22:22:15.450Z,20.60
2018-05-15T22:24:25.567Z,20.50
2018-05-15T22:26:29.289Z,20.50
2018-05-15T22:28:32.823Z,20.50
2018-05-15T22:30:36.347Z,20.50
2018-05-15T22:32:40.782Z,20.50
2018-05-15T22:34:44.303Z,20.40
2018-05-15T22:36:48.577Z,20.50
2018-05-15T22:38:52.128Z,20.40
2018-05-15T22:40:55.635Z,20.40
2018-05-15T22:42:59.221Z,20.40
2018-05-15T22:45:02.823Z,20.40
2018-05-15T22:47:06.366Z,20.40
2018-05-15T22:49:09.899Z,20.40
2018-05-15T22:51:14.265Z,20.30
2018-05-15T22:53:17.961Z,20.30
2018-05-15T22:55:22.281Z,20.30
2018-05-15T22:57:25.863Z,20.20
2018-05-15T22:59:29.415Z,20.20
2018-05-15T23:01:32.988Z,20.30
2018-05-15T23:03:36.508Z,20.30
2018-05-15T23:05:40.799Z,20.30
2018-05-15T23:07:44.893Z,20.20
2018-05-15T23:09:48.428Z,20.30
2018-05-15T23:11:52.710Z,20.20
2018-05-15T23:13:56.261Z,20.20
2018-05-15T23:15:59.775Z,20.20
2018-05-15T23:18:03.327Z,20.20
2018-05-15T23:20:07.723Z,20.10
2018-05-15T23:24:44.113Z,20.20
2018-05-15T23:26:47.591Z,20.10
2018-05-15T23:28:51.010Z,20.10
2018-05-15T23:30:55.225Z,20.10
2018-05-15T23:32:59.438Z,20.10
2018-05-15T23:35:03.626Z,20.10
2018-05-15T23:37:07.253Z,20.10
2018-05-15T23:39:10.701Z,20.10
2018-05-15T23:41:14.149Z,20.10
2018-05-15T23:43:17.626Z,20.10
2018-05-15T23:45:21.052Z,20.10
2018-05-15T23:47:24.492Z,20.10
2018-05-15T23:49:27.947Z,20.10
2018-05-15T23:51:31.395Z,20.00
2018-05-15T23:53:34.841Z,20.00
2018-05-15T23:55:38.318Z,20.00
2018-05-15T23:57:41.769Z,19.90
2018-05-15T23:59:45.211Z,19.90
